sensor_id;sensor_type;location;lat;lon;timestamp;pressure;altitude;pressure_sealevel;temperature;humidity
49515;BME280;35415;47.870;16.058;2023-05-20T00:01:11;97818.72;;;11.64;100.00
49515;BME280;35415;47.870;16.058;2023-05-20T00:03:46;97847.44;;;11.80;100.00
49515;BME280;35415;47.870;16.058;2023-05-20T00:06:16;97840.06;;;11.75;100.00
49515;BME280;35415;47.870;16.058;2023-05-20T00:08:43;97791.97;;;11.47;100.00
49515;BME280;35415;47.870;16.058;2023-05-20T00:11:12;97828.97;;;11.67;100.00
49515;BME280;35415;47.870;16.058;2023-05-20T00:13:42;97833.56;;;11.66;100.00
49515;BME280;35415;47.870;16.058;2023-05-20T00:16:10;97849.75;;;11.71;100.00
49515;BME280;35415;47.870;16.058;2023-05-20T00:18:41;97851.09;;;11.69;100.00
49515;BME280;35415;47.870;16.058;2023-05-20T00:21:08;97835.16;;;11.62;100.00
49515;BME280;35415;47.870;16.058;2023-05-20T00:23:41;97838.41;;;11.64;100.00
49515;BME280;35415;47.870;16.058;2023-05-20T00:26:09;97839.75;;;11.62;100.00
49515;BME280;35415;47.870;16.058;2023-05-20T00:28:38;97836.72;;;11.58;100.00
49515;BME280;35415;47.870;16.058;2023-05-20T00:31:05;97837.81;;;11.57;100.00
49515;BME280;35415;47.870;16.058;2023-05-20T00:33:33;97814.03;;;11.44;100.00
49515;BME280;35415;47.870;16.058;2023-05-20T00:36:01;97830.47;;;11.48;100.00
49515;BME280;35415;47.870;16.058;2023-05-20T00:38:28;97822.94;;;11.44;100.00
49515;BME280;35415;47.870;16.058;2023-05-20T00:40:56;97819.41;;;11.44;100.00
49515;BME280;35415;47.870;16.058;2023-05-20T00:43:23;97826.69;;;11.43;100.00
49515;BME280;35415;47.870;16.058;2023-05-20T00:45:53;97796.41;;;11.26;100.00
49515;BME280;35415;47.870;16.058;2023-05-20T00:48:21;97833.38;;;11.41;100.00
49515;BME280;35415;47.870;16.058;2023-05-20T00:50:51;97826.91;;;11.37;100.00
49515;BME280;35415;47.870;16.058;2023-05-20T00:53:19;97829.03;;;11.35;100.00
49515;BME280;35415;47.870;16.058;2023-05-20T00:55:47;97815.03;;;11.33;100.00
49515;BME280;35415;47.870;16.058;2023-05-20T00:58:15;97796.59;;;11.14;100.00
49515;BME280;35415;47.870;16.058;2023-05-20T01:00:42;97835.22;;;11.30;100.00
49515;BME280;35415;47.870;16.058;2023-05-20T01:03:12;97829.28;;;11.28;100.00
49515;BME280;35415;47.870;16.058;2023-05-20T01:05:40;97831.16;;;11.28;100.00
49515;BME280;35415;47.870;16.058;2023-05-20T01:08:08;97827.91;;;11.26;100.00
49515;BME280;35415;47.870;16.058;2023-05-20T01:10:36;97814.13;;;11.22;100.00
49515;BME280;35415;47.870;16.058;2023-05-20T01:13:10;97805.47;;;11.15;100.00
49515;BME280;35415;47.870;16.058;2023-05-20T01:15:39;97791.66;;;11.06;100.00
49515;BME280;35415;47.870;16.058;2023-05-20T01:18:09;97803.34;;;11.22;100.00
49515;BME280;35415;47.870;16.058;2023-05-20T01:20:43;97800.94;;;11.21;100.00
49515;BME280;35415;47.870;16.058;2023-05-20T01:23:13;97779.28;;;11.05;100.00
49515;BME280;35415;47.870;16.058;2023-05-20T01:25:41;97800.41;;;11.24;100.00
49515;BME280;35415;47.870;16.058;2023-05-20T01:28:09;97793.13;;;11.24;100.00
49515;BME280;35415;47.870;16.058;2023-05-20T01:30:47;97771.28;;;11.15;100.00
49515;BME280;35415;47.870;16.058;2023-05-20T01:33:19;97771.28;;;11.15;100.00
49515;BME280;35415;47.870;16.058;2023-05-20T01:35:48;97761.22;;;11.06;100.00
49515;BME280;35415;47.870;16.058;2023-05-20T01:38:18;97775.06;;;11.20;100.00
49515;BME280;35415;47.870;16.058;2023-05-20T01:40:46;97773.44;;;11.19;100.00
49515;BME280;35415;47.870;16.058;2023-05-20T01:43:16;97777.47;;;11.16;100.00
49515;BME280;35415;47.870;16.058;2023-05-20T01:45:44;97776.66;;;11.15;100.00
49515;BME280;35415;47.870;16.058;2023-05-20T01:48:11;97774.50;;;11.12;100.00
49515;BME280;35415;47.870;16.058;2023-05-20T01:50:39;97773.06;;;11.05;100.00
49515;BME280;35415;47.870;16.058;2023-05-20T01:53:06;97782.28;;;11.09;100.00
49515;BME280;35415;47.870;16.058;2023-05-20T01:55:36;97791.41;;;11.08;100.00
49515;BME280;35415;47.870;16.058;2023-05-20T01:58:03;97781.16;;;11.05;100.00
49515;BME280;35415;47.870;16.058;2023-05-20T02:00:31;97778.16;;;11.01;100.00
49515;BME280;35415;47.870;16.058;2023-05-20T02:02:58;97774.94;;;10.99;100.00
49515;BME280;35415;47.870;16.058;2023-05-20T02:05:27;97777.03;;;10.92;100.00
49515;BME280;35415;47.870;16.058;2023-05-20T02:07:55;97768.97;;;10.92;100.00
49515;BME280;35415;47.870;16.058;2023-05-20T02:10:23;97769.13;;;10.80;100.00
49515;BME280;35415;47.870;16.058;2023-05-20T02:12:52;97779.13;;;10.85;100.00
49515;BME280;35415;47.870;16.058;2023-05-20T02:15:20;97785.00;;;10.82;100.00
49515;BME280;35415;47.870;16.058;2023-05-20T02:17:48;97756.88;;;10.63;100.00
49515;BME280;35415;47.870;16.058;2023-05-20T02:20:16;97758.19;;;10.60;100.00
49515;BME280;35415;47.870;16.058;2023-05-20T02:22:43;97787.34;;;10.73;100.00
49515;BME280;35415;47.870;16.058;2023-05-20T02:25:11;97792.44;;;10.70;100.00
49515;BME280;35415;47.870;16.058;2023-05-20T02:27:38;97799.13;;;10.67;100.00
49515;BME280;35415;47.870;16.058;2023-05-20T02:30:21;97798.06;;;10.68;100.00
49515;BME280;35415;47.870;16.058;2023-05-20T02:32:49;97787.47;;;10.57;100.00
49515;BME280;35415;47.870;16.058;2023-05-20T02:35:17;97792.09;;;10.61;100.00
49515;BME280;35415;47.870;16.058;2023-05-20T02:37:44;97793.41;;;10.59;100.00
49515;BME280;35415;47.870;16.058;2023-05-20T02:40:12;97768.25;;;10.43;100.00
49515;BME280;35415;47.870;16.058;2023-05-20T02:42:40;97792.03;;;10.56;100.00
49515;BME280;35415;47.870;16.058;2023-05-20T02:45:08;97789.66;;;10.60;100.00
49515;BME280;35415;47.870;16.058;2023-05-20T02:47:37;97791.53;;;10.59;100.00
49515;BME280;35415;47.870;16.058;2023-05-20T02:50:07;97798.81;;;10.59;100.00
49515;BME280;35415;47.870;16.058;2023-05-20T02:52:34;97784.44;;;10.48;100.00
49515;BME280;35415;47.870;16.058;2023-05-20T02:55:03;97796.34;;;10.57;100.00
49515;BME280;35415;47.870;16.058;2023-05-20T02:57:31;97810.38;;;10.59;100.00
49515;BME280;35415;47.870;16.058;2023-05-20T02:59:59;97789.50;;;10.44;100.00
49515;BME280;35415;47.870;16.058;2023-05-20T03:02:26;97806.63;;;10.60;100.00
49515;BME280;35415;47.870;16.058;2023-05-20T03:04:56;97739.50;;;10.21;100.00
49515;BME280;35415;47.870;16.058;2023-05-20T03:07:24;97805.53;;;10.61;100.00
49515;BME280;35415;47.870;16.058;2023-05-20T03:09:51;97760.38;;;10.36;100.00
49515;BME280;35415;47.870;16.058;2023-05-20T03:12:19;97809.84;;;10.62;100.00
49515;BME280;35415;47.870;16.058;2023-05-20T03:14:46;97801.78;;;10.62;100.00
49515;BME280;35415;47.870;16.058;2023-05-20T03:17:14;97804.22;;;10.64;100.00
49515;BME280;35415;47.870;16.058;2023-05-20T03:19:42;97802.34;;;10.64;100.00
49515;BME280;35415;47.870;16.058;2023-05-20T03:22:12;97805.03;;;10.64;100.00
49515;BME280;35415;47.870;16.058;2023-05-20T03:24:39;97810.16;;;10.66;100.00
49515;BME280;35415;47.870;16.058;2023-05-20T03:27:07;97778.78;;;10.49;100.00
49515;BME280;35415;47.870;16.058;2023-05-20T03:29:34;97800.34;;;10.54;100.00
49515;BME280;35415;47.870;16.058;2023-05-20T03:32:03;97820.97;;;10.71;100.00
49515;BME280;35415;47.870;16.058;2023-05-20T03:34:31;97807.47;;;10.66;100.00
49515;BME280;35415;47.870;16.058;2023-05-20T03:36:58;97769.63;;;10.45;100.00
49515;BME280;35415;47.870;16.058;2023-05-20T03:39:28;97801.28;;;10.65;100.00
49515;BME280;35415;47.870;16.058;2023-05-20T03:41:55;97827.50;;;10.80;100.00
49515;BME280;35415;47.870;16.058;2023-05-20T03:44:23;97814.47;;;10.67;100.00
49515;BME280;35415;47.870;16.058;2023-05-20T03:46:50;97812.38;;;10.74;100.00
49515;BME280;35415;47.870;16.058;2023-05-20T03:49:18;97820.81;;;10.82;100.00
49515;BME280;35415;47.870;16.058;2023-05-20T03:51:45;97811.06;;;10.76;100.00
49515;BME280;35415;47.870;16.058;2023-05-20T03:54:13;97821.66;;;10.88;100.00
49515;BME280;35415;47.870;16.058;2023-05-20T03:56:43;97813.88;;;10.92;100.00
49515;BME280;35415;47.870;16.058;2023-05-20T03:59:15;97817.97;;;10.94;100.00
49515;BME280;35415;47.870;16.058;2023-05-20T04:01:42;97747.88;;;10.52;100.00
49515;BME280;35415;47.870;16.058;2023-05-20T04:04:10;97820.13;;;10.97;100.00
49515;BME280;35415;47.870;16.058;2023-05-20T04:06:38;97779.84;;;10.75;100.00
49515;BME280;35415;47.870;16.058;2023-05-20T04:09:06;97791.22;;;10.82;100.00
49515;BME280;35415;47.870;16.058;2023-05-20T04:11:36;97815.56;;;10.98;100.00
49515;BME280;35415;47.870;16.058;2023-05-20T04:14:04;97816.66;;;11.02;100.00
49515;BME280;35415;47.870;16.058;2023-05-20T04:16:32;97817.22;;;11.04;100.00
49515;BME280;35415;47.870;16.058;2023-05-20T04:19:02;97808.06;;;11.05;100.00
49515;BME280;35415;47.870;16.058;2023-05-20T04:21:29;97788.63;;;10.93;100.00
49515;BME280;35415;47.870;16.058;2023-05-20T04:23:58;97819.66;;;11.05;100.00
49515;BME280;35415;47.870;16.058;2023-05-20T04:26:25;97807.22;;;10.99;100.00
49515;BME280;35415;47.870;16.058;2023-05-20T04:28:54;97812.38;;;11.06;100.00
49515;BME280;35415;47.870;16.058;2023-05-20T04:31:25;97784.03;;;10.93;100.00
49515;BME280;35415;47.870;16.058;2023-05-20T04:33:52;97794.31;;;11.01;100.00
49515;BME280;35415;47.870;16.058;2023-05-20T04:36:20;97793.53;;;11.06;100.00
49515;BME280;35415;47.870;16.058;2023-05-20T04:38:53;97813.84;;;11.19;100.00
49515;BME280;35415;47.870;16.058;2023-05-20T04:41:20;97817.38;;;11.24;100.00
49515;BME280;35415;47.870;16.058;2023-05-20T04:43:49;97805.47;;;11.15;100.00
49515;BME280;35415;47.870;16.058;2023-05-20T04:46:16;97801.44;;;11.18;100.00
49515;BME280;35415;47.870;16.058;2023-05-20T04:48:46;97825.78;;;11.33;100.00
49515;BME280;35415;47.870;16.058;2023-05-20T04:51:16;97825.81;;;11.38;100.00
49515;BME280;35415;47.870;16.058;2023-05-20T04:53:43;97810.16;;;11.30;100.00
49515;BME280;35415;47.870;16.058;2023-05-20T04:56:11;97838.31;;;11.49;100.00
49515;BME280;35415;47.870;16.058;2023-05-20T04:58:43;97831.59;;;11.57;100.00
49515;BME280;35415;47.870;16.058;2023-05-20T05:01:11;97769.38;;;11.11;100.00
49515;BME280;35415;47.870;16.058;2023-05-20T05:03:41;97834.09;;;11.63;100.00
49515;BME280;35415;47.870;16.058;2023-05-20T05:06:10;97836.00;;;11.68;100.00
49515;BME280;35415;47.870;16.058;2023-05-20T05:08:41;97834.13;;;11.73;100.00
49515;BME280;35415;47.870;16.058;2023-05-20T05:11:08;97840.66;;;11.78;100.00
49515;BME280;35415;47.870;16.058;2023-05-20T05:13:36;97831.00;;;11.82;100.00
49515;BME280;35415;47.870;16.058;2023-05-20T05:16:05;97817.47;;;11.77;100.00
49515;BME280;35415;47.870;16.058;2023-05-20T05:18:32;97834.25;;;11.89;100.00
49515;BME280;35415;47.870;16.058;2023-05-20T05:21:00;97829.44;;;11.96;100.00
49515;BME280;35415;47.870;16.058;2023-05-20T05:23:31;97830.28;;;12.01;100.00
49515;BME280;35415;47.870;16.058;2023-05-20T05:25:59;97817.63;;;12.07;100.00
49515;BME280;35415;47.870;16.058;2023-05-20T05:28:27;97796.56;;;11.99;100.00
49515;BME280;35415;47.870;16.058;2023-05-20T05:30:54;97820.63;;;12.16;100.00
49515;BME280;35415;47.870;16.058;2023-05-20T05:33:22;97816.06;;;12.16;100.00
49515;BME280;35415;47.870;16.058;2023-05-20T05:35:50;97817.19;;;12.30;100.00
49515;BME280;35415;47.870;16.058;2023-05-20T05:38:17;97824.22;;;12.37;100.00
49515;BME280;35415;47.870;16.058;2023-05-20T05:40:46;97808.00;;;12.26;100.00
49515;BME280;35415;47.870;16.058;2023-05-20T05:43:14;97830.47;;;12.47;100.00
49515;BME280;35415;47.870;16.058;2023-05-20T05:45:41;97832.09;;;12.53;100.00
49515;BME280;35415;47.870;16.058;2023-05-20T05:48:09;97819.94;;;12.56;100.00
49515;BME280;35415;47.870;16.058;2023-05-20T05:50:36;97803.75;;;12.46;100.00
49515;BME280;35415;47.870;16.058;2023-05-20T05:53:04;97838.31;;;12.69;100.00
49515;BME280;35415;47.870;16.058;2023-05-20T05:55:32;97837.00;;;12.77;100.00
49515;BME280;35415;47.870;16.058;2023-05-20T05:58:02;97831.06;;;12.85;100.00
49515;BME280;35415;47.870;16.058;2023-05-20T06:00:30;97829.19;;;12.90;100.00
49515;BME280;35415;47.870;16.058;2023-05-20T06:02:57;97809.75;;;12.88;100.00
49515;BME280;35415;47.870;16.058;2023-05-20T06:05:25;97709.28;;;12.35;100.00
49515;BME280;35415;47.870;16.058;2023-05-20T06:07:52;97793.28;;;12.95;100.00
49515;BME280;35415;47.870;16.058;2023-05-20T06:10:21;97798.13;;;13.03;100.00
49515;BME280;35415;47.870;16.058;2023-05-20T06:12:49;97771.69;;;12.85;100.00
49515;BME280;35415;47.870;16.058;2023-05-20T06:15:18;97813.56;;;13.28;100.00
49515;BME280;35415;47.870;16.058;2023-05-20T06:17:46;97780.31;;;13.07;100.00
49515;BME280;35415;47.870;16.058;2023-05-20T06:20:13;97724.97;;;12.89;100.00
49515;BME280;35415;47.870;16.058;2023-05-20T06:22:41;97805.72;;;13.47;100.00
49515;BME280;35415;47.870;16.058;2023-05-20T06:25:12;97784.13;;;13.32;100.00
49515;BME280;35415;47.870;16.058;2023-05-20T06:27:40;97798.41;;;13.52;100.00
49515;BME280;35415;47.870;16.058;2023-05-20T06:30:08;97764.38;;;13.36;100.00
49515;BME280;35415;47.870;16.058;2023-05-20T06:32:37;97730.34;;;13.25;100.00
49515;BME280;35415;47.870;16.058;2023-05-20T06:35:05;97718.47;;;13.26;100.00
49515;BME280;35415;47.870;16.058;2023-05-20T06:37:33;97721.44;;;13.35;100.00
49515;BME280;35415;47.870;16.058;2023-05-20T06:40:05;97751.91;;;13.61;100.00
49515;BME280;35415;47.870;16.058;2023-05-20T06:42:33;97728.69;;;13.49;100.00
49515;BME280;35415;47.870;16.058;2023-05-20T06:45:04;97729.19;;;13.57;100.00
49515;BME280;35415;47.870;16.058;2023-05-20T06:47:31;97729.44;;;13.65;100.00
49515;BME280;35415;47.870;16.058;2023-05-20T06:50:01;97769.31;;;14.04;100.00
49515;BME280;35415;47.870;16.058;2023-05-20T06:52:28;97709.94;;;13.78;100.00
49515;BME280;35415;47.870;16.058;2023-05-20T06:54:56;97784.88;;;14.32;100.00
49515;BME280;35415;47.870;16.058;2023-05-20T06:57:24;97776.75;;;14.32;100.00
49515;BME280;35415;47.870;16.058;2023-05-20T07:02:50;97739.63;;;14.38;100.00
49515;BME280;35415;47.870;16.058;2023-05-20T07:05:21;97759.00;;;14.60;100.00
49515;BME280;35415;47.870;16.058;2023-05-20T07:07:49;97774.84;;;14.82;100.00
49515;BME280;35415;47.870;16.058;2023-05-20T07:10:16;97765.59;;;14.88;100.00
49515;BME280;35415;47.870;16.058;2023-05-20T07:12:44;97766.34;;;14.94;100.00
49515;BME280;35415;47.870;16.058;2023-05-20T07:15:12;97740.13;;;14.89;100.00
49515;BME280;35415;47.870;16.058;2023-05-20T07:17:39;97771.31;;;15.16;100.00
49515;BME280;35415;47.870;16.058;2023-05-20T07:20:07;97765.28;;;15.24;100.00
49515;BME280;35415;47.870;16.058;2023-05-20T07:22:37;97754.63;;;15.32;100.00
49515;BME280;35415;47.870;16.058;2023-05-20T07:31:04;97760.34;;;15.60;100.00
49515;BME280;35415;47.870;16.058;2023-05-20T07:33:32;97731.34;;;15.55;100.00
49515;BME280;35415;47.870;16.058;2023-05-20T07:35:59;97666.41;;;15.21;100.00
49515;BME280;35415;47.870;16.058;2023-05-20T07:38:29;97754.13;;;15.83;100.00
49515;BME280;35415;47.870;16.058;2023-05-20T07:40:57;97737.09;;;15.78;100.00
49515;BME280;35415;47.870;16.058;2023-05-20T07:43:27;97684.66;;;15.63;100.00
49515;BME280;35415;47.870;16.058;2023-05-20T07:45:55;97686.22;;;15.70;100.00
49515;BME280;35415;47.870;16.058;2023-05-20T07:48:22;97668.63;;;15.67;100.00
49515;BME280;35415;47.870;16.058;2023-05-20T07:50:50;97693.78;;;15.91;100.00
49515;BME280;35415;47.870;16.058;2023-05-20T07:53:23;97734.59;;;16.24;100.00
49515;BME280;35415;47.870;16.058;2023-05-20T07:55:52;97702.19;;;16.14;100.00
49515;BME280;35415;47.870;16.058;2023-05-20T07:58:22;97757.88;;;16.49;100.00
49515;BME280;35415;47.870;16.058;2023-05-20T08:01:00;97748.25;;;16.57;100.00
49515;BME280;35415;47.870;16.058;2023-05-20T08:03:39;97748.72;;;16.64;100.00
49515;BME280;35415;47.870;16.058;2023-05-20T08:06:06;97660.13;;;16.11;100.00
49515;BME280;35415;47.870;16.058;2023-05-20T08:08:34;97711.34;;;16.55;100.00
49515;BME280;35415;47.870;16.058;2023-05-20T08:11:03;97677.16;;;16.36;100.00
49515;BME280;35415;47.870;16.058;2023-05-20T08:13:30;97720.81;;;16.77;100.00
49515;BME280;35415;47.870;16.058;2023-05-20T08:15:58;97690.50;;;16.70;100.00
49515;BME280;35415;47.870;16.058;2023-05-20T08:21:16;97706.38;;;16.95;100.00
49515;BME280;35415;47.870;16.058;2023-05-20T08:23:59;97706.22;;;17.05;100.00
49515;BME280;35415;47.870;16.058;2023-05-20T08:26:28;97681.72;;;16.92;100.00
49515;BME280;35415;47.870;16.058;2023-05-20T08:31:47;97733.78;;;17.45;100.00
49515;BME280;35415;47.870;16.058;2023-05-20T08:40:19;97663.78;;;17.37;100.00
49515;BME280;35415;47.870;16.058;2023-05-20T08:42:51;97723.56;;;17.83;100.00
49515;BME280;35415;47.870;16.058;2023-05-20T08:45:20;97726.66;;;17.90;100.00
49515;BME280;35415;47.870;16.058;2023-05-20T08:47:50;97720.41;;;18.03;100.00
49515;BME280;35415;47.870;16.058;2023-05-20T08:53:07;97683.00;;;17.95;100.00
49515;BME280;35415;47.870;16.058;2023-05-20T08:55:39;97673.47;;;17.98;100.00
49515;BME280;35415;47.870;16.058;2023-05-20T09:16:14;97598.38;;;18.42;100.00
49515;BME280;35415;47.870;16.058;2023-05-20T09:19:17;97660.09;;;18.91;100.00
49515;BME280;35415;47.870;16.058;2023-05-20T09:21:53;97661.66;;;19.14;100.00
49515;BME280;35415;47.870;16.058;2023-05-20T09:33:32;97647.34;;;19.71;100.00
49515;BME280;35415;47.870;16.058;2023-05-20T11:37:55;97639.00;;;24.29;80.40
49515;BME280;35415;47.870;16.058;2023-05-20T12:04:49;97595.59;;;24.10;78.54
49515;BME280;35415;47.870;16.058;2023-05-20T12:22:35;97503.91;;;23.62;76.41
49515;BME280;35415;47.870;16.058;2023-05-20T12:40:28;97580.75;;;23.99;75.81
49515;BME280;35415;47.870;16.058;2023-05-20T13:59:07;97490.75;;;25.66;58.31
49515;BME280;35415;47.870;16.058;2023-05-20T14:04:38;97516.81;;;25.68;55.19
49515;BME280;35415;47.870;16.058;2023-05-20T14:07:11;97510.34;;;25.61;55.03
49515;BME280;35415;47.870;16.058;2023-05-20T14:09:38;97500.78;;;25.55;55.34
49515;BME280;35415;47.870;16.058;2023-05-20T14:12:06;97500.66;;;25.51;56.32
49515;BME280;35415;47.870;16.058;2023-05-20T14:23:45;97488.38;;;25.64;55.29
49515;BME280;35415;47.870;16.058;2023-05-20T14:26:14;97492.13;;;25.72;56.22
49515;BME280;35415;47.870;16.058;2023-05-20T14:28:41;97488.22;;;25.73;53.66
49515;BME280;35415;47.870;16.058;2023-05-20T14:31:09;97488.34;;;25.80;54.60
49515;BME280;35415;47.870;16.058;2023-05-20T14:34:11;97484.44;;;25.81;56.22
49515;BME280;35415;47.870;16.058;2023-05-20T14:36:53;97473.56;;;25.88;55.53
49515;BME280;35415;47.870;16.058;2023-05-20T14:39:44;97467.84;;;25.97;57.00
49515;BME280;35415;47.870;16.058;2023-05-20T14:42:13;97447.88;;;25.84;55.96
49515;BME280;35415;47.870;16.058;2023-05-20T14:44:41;97467.84;;;25.97;55.94
49515;BME280;35415;47.870;16.058;2023-05-20T14:47:24;97464.88;;;26.05;54.62
49515;BME280;35415;47.870;16.058;2023-05-20T14:49:51;97454.84;;;25.97;54.36
49515;BME280;35415;47.870;16.058;2023-05-20T14:52:19;97477.50;;;26.06;53.79
49515;BME280;35415;47.870;16.058;2023-05-20T14:54:48;97460.00;;;25.99;52.91
49515;BME280;35415;47.870;16.058;2023-05-20T14:57:16;97440.66;;;25.76;54.05
49515;BME280;35415;47.870;16.058;2023-05-20T15:03:20;97462.91;;;25.87;54.11
49515;BME280;35415;47.870;16.058;2023-05-20T15:05:48;97441.91;;;25.63;54.43
49515;BME280;35415;47.870;16.058;2023-05-20T15:08:16;97428.78;;;25.56;55.28
49515;BME280;35415;47.870;16.058;2023-05-20T15:26:17;97460.03;;;25.64;54.87
49515;BME280;35415;47.870;16.058;2023-05-20T15:28:58;97442.03;;;25.50;53.90
49515;BME280;35415;47.870;16.058;2023-05-20T15:31:26;97441.34;;;25.54;52.80
49515;BME280;35415;47.870;16.058;2023-05-20T15:33:53;97437.84;;;25.57;52.64
49515;BME280;35415;47.870;16.058;2023-05-20T15:36:22;97452.78;;;25.56;51.22
49515;BME280;35415;47.870;16.058;2023-05-20T15:38:50;97429.47;;;25.34;51.53
49515;BME280;35415;47.870;16.058;2023-05-20T15:41:22;97452.69;;;25.52;51.62
49515;BME280;35415;47.870;16.058;2023-05-20T15:43:50;97451.19;;;25.55;52.51
49515;BME280;35415;47.870;16.058;2023-05-20T15:46:18;97447.63;;;25.54;52.78
49515;BME280;35415;47.870;16.058;2023-05-20T15:48:45;97418.09;;;25.35;52.84
49515;BME280;35415;47.870;16.058;2023-05-20T15:51:13;97446.38;;;25.52;52.42
49515;BME280;35415;47.870;16.058;2023-05-20T15:53:42;97441.53;;;25.45;52.57
49515;BME280;35415;47.870;16.058;2023-05-20T15:56:10;97438.28;;;25.39;53.28
49515;BME280;35415;47.870;16.058;2023-05-20T15:58:42;97431.88;;;25.35;53.54
49515;BME280;35415;47.870;16.058;2023-05-20T16:01:10;97431.94;;;25.19;52.74
49515;BME280;35415;47.870;16.058;2023-05-20T16:03:38;97444.34;;;25.13;53.22
49515;BME280;35415;47.870;16.058;2023-05-20T16:06:06;97449.44;;;25.11;52.55
49515;BME280;35415;47.870;16.058;2023-05-20T16:08:35;97419.00;;;24.88;52.55
49515;BME280;35415;47.870;16.058;2023-05-20T16:11:03;97422.91;;;24.87;53.18
49515;BME280;35415;47.870;16.058;2023-05-20T16:13:30;97441.59;;;24.98;54.17
49515;BME280;35415;47.870;16.058;2023-05-20T16:15:59;97449.41;;;24.96;54.01
49515;BME280;35415;47.870;16.058;2023-05-20T16:18:27;97435.06;;;24.86;54.25
49515;BME280;35415;47.870;16.058;2023-05-20T16:20:54;97448.53;;;24.92;54.01
49515;BME280;35415;47.870;16.058;2023-05-20T16:23:23;97432.91;;;24.80;54.33
49515;BME280;35415;47.870;16.058;2023-05-20T16:25:50;97437.91;;;24.74;54.19
49515;BME280;35415;47.870;16.058;2023-05-20T16:28:19;97444.56;;;24.73;54.11
49515;BME280;35415;47.870;16.058;2023-05-20T16:30:46;97436.47;;;24.65;54.26
49515;BME280;35415;47.870;16.058;2023-05-20T16:33:16;97438.25;;;24.57;54.86
49515;BME280;35415;47.870;16.058;2023-05-20T16:35:45;97436.81;;;24.47;56.24
49515;BME280;35415;47.870;16.058;2023-05-20T16:38:13;97382.75;;;24.08;55.66
49515;BME280;35415;47.870;16.058;2023-05-20T16:40:41;97432.34;;;24.27;56.11
49515;BME280;35415;47.870;16.058;2023-05-20T16:43:08;97437.66;;;24.20;56.99
49515;BME280;35415;47.870;16.058;2023-05-20T16:45:36;97440.66;;;24.15;57.83
49515;BME280;35415;47.870;16.058;2023-05-20T16:48:05;97428.81;;;23.98;57.68
49515;BME280;35415;47.870;16.058;2023-05-20T16:50:34;97444.06;;;23.96;57.61
49515;BME280;35415;47.870;16.058;2023-05-20T16:53:01;97452.81;;;23.86;57.75
49515;BME280;35415;47.870;16.058;2023-05-20T16:55:29;97442.22;;;23.72;58.57
49515;BME280;35415;47.870;16.058;2023-05-20T16:57:59;97378.63;;;23.18;60.26
49515;BME280;35415;47.870;16.058;2023-05-20T17:00:27;97452.53;;;23.51;62.32
49515;BME280;35415;47.870;16.058;2023-05-20T17:02:55;97442.41;;;23.39;62.89
49515;BME280;35415;47.870;16.058;2023-05-20T17:05:22;97448.47;;;23.32;62.80
49515;BME280;35415;47.870;16.058;2023-05-20T17:07:51;97445.31;;;23.18;64.21
49515;BME280;35415;47.870;16.058;2023-05-20T17:10:23;97453.53;;;23.06;64.88
49515;BME280;35415;47.870;16.058;2023-05-20T17:12:53;97446.25;;;22.86;66.15
49515;BME280;35415;47.870;16.058;2023-05-20T17:15:22;97434.19;;;22.66;67.48
49515;BME280;35415;47.870;16.058;2023-05-20T17:17:50;97457.41;;;22.68;68.19
49515;BME280;35415;47.870;16.058;2023-05-20T17:20:18;97452.25;;;22.55;68.31
49515;BME280;35415;47.870;16.058;2023-05-20T17:22:46;97448.56;;;22.38;69.50
49515;BME280;35415;47.870;16.058;2023-05-20T17:25:15;97455.38;;;22.32;69.68
49515;BME280;35415;47.870;16.058;2023-05-20T17:27:42;97467.03;;;22.29;70.79
49515;BME280;35415;47.870;16.058;2023-05-20T17:30:10;97447.69;;;22.13;69.66
49515;BME280;35415;47.870;16.058;2023-05-20T17:32:38;97467.19;;;22.12;70.19
49515;BME280;35415;47.870;16.058;2023-05-20T17:35:06;97461.63;;;22.00;71.47
49515;BME280;35415;47.870;16.058;2023-05-20T17:37:33;97467.66;;;21.93;73.37
49515;BME280;35415;47.870;16.058;2023-05-20T17:40:01;97446.59;;;21.73;71.43
49515;BME280;35415;47.870;16.058;2023-05-20T17:42:33;97441.59;;;21.54;73.02
49515;BME280;35415;47.870;16.058;2023-05-20T17:45:00;97400.13;;;21.22;72.71
49515;BME280;35415;47.870;16.058;2023-05-20T17:47:28;97458.53;;;21.47;72.35
49515;BME280;35415;47.870;16.058;2023-05-20T17:49:56;97412.38;;;21.16;72.67
49515;BME280;35415;47.870;16.058;2023-05-20T17:52:25;97439.88;;;21.20;73.85
49515;BME280;35415;47.870;16.058;2023-05-20T17:54:52;97405.81;;;20.88;73.75
49515;BME280;35415;47.870;16.058;2023-05-20T17:57:20;97422.03;;;20.93;73.97
49515;BME280;35415;47.870;16.058;2023-05-20T17:59:48;97434.22;;;20.95;74.40
49515;BME280;35415;47.870;16.058;2023-05-20T18:02:18;97431.69;;;20.90;75.46
49515;BME280;35415;47.870;16.058;2023-05-20T18:04:46;97450.69;;;20.87;75.90
49515;BME280;35415;47.870;16.058;2023-05-20T18:07:14;97442.66;;;20.82;75.59
49515;BME280;35415;47.870;16.058;2023-05-20T18:09:42;97402.84;;;20.34;77.42
49515;BME280;35415;47.870;16.058;2023-05-20T18:12:09;97480.63;;;20.83;76.05
49515;BME280;35415;47.870;16.058;2023-05-20T18:14:37;97478.59;;;20.71;77.43
49515;BME280;35415;47.870;16.058;2023-05-20T18:17:06;97485.19;;;20.70;76.83
49515;BME280;35415;47.870;16.058;2023-05-20T18:19:33;97480.06;;;20.60;78.13
49515;BME280;35415;47.870;16.058;2023-05-20T18:22:01;97464.88;;;20.42;76.89
49515;BME280;35415;47.870;16.058;2023-05-20T18:24:31;97471.47;;;20.41;78.15
49515;BME280;35415;47.870;16.058;2023-05-20T18:26:59;97480.75;;;20.40;77.60